sensor_id;sensor_type;location;lat;lon;timestamp;P1;durP1;ratioP1;P2;durP2;ratioP2
19043;SDS011;9654;52.302;8.120;2023-04-06T00:00:02;9.67;;;4.47;;
19043;SDS011;9654;52.302;8.120;2023-04-06T00:02:32;6.23;;;4.67;;
19043;SDS011;9654;52.302;8.120;2023-04-06T00:04:59;10.27;;;4.40;;
19043;SDS011;9654;52.302;8.120;2023-04-06T00:07:26;6.03;;;4.60;;
19043;SDS011;9654;52.302;8.120;2023-04-06T00:09:54;6.57;;;4.57;;
19043;SDS011;9654;52.302;8.120;2023-04-06T00:12:21;11.60;;;5.10;;
19043;SDS011;9654;52.302;8.120;2023-04-06T00:14:48;6.23;;;4.63;;
19043;SDS011;9654;52.302;8.120;2023-04-06T00:17:16;9.43;;;4.97;;
19043;SDS011;9654;52.302;8.120;2023-04-06T00:19:43;6.83;;;4.00;;
19043;SDS011;9654;52.302;8.120;2023-04-06T00:22:10;7.53;;;4.63;;
19043;SDS011;9654;52.302;8.120;2023-04-06T00:24:37;6.83;;;4.40;;
19043;SDS011;9654;52.302;8.120;2023-04-06T00:27:03;6.30;;;4.27;;
19043;SDS011;9654;52.302;8.120;2023-04-06T00:29:30;8.03;;;4.60;;
19043;SDS011;9654;52.302;8.120;2023-04-06T00:31:57;9.27;;;5.33;;
19043;SDS011;9654;52.302;8.120;2023-04-06T00:34:25;6.97;;;4.60;;
19043;SDS011;9654;52.302;8.120;2023-04-06T00:36:52;6.43;;;4.80;;
19043;SDS011;9654;52.302;8.120;2023-04-06T00:39:19;7.97;;;4.53;;
19043;SDS011;9654;52.302;8.120;2023-04-06T00:41:46;6.13;;;4.50;;
19043;SDS011;9654;52.302;8.120;2023-04-06T00:44:16;7.13;;;5.10;;
19043;SDS011;9654;52.302;8.120;2023-04-06T00:46:43;7.07;;;4.70;;
19043;SDS011;9654;52.302;8.120;2023-04-06T00:49:10;5.90;;;4.30;;
19043;SDS011;9654;52.302;8.120;2023-04-06T00:51:41;7.17;;;4.90;;
19043;SDS011;9654;52.302;8.120;2023-04-06T00:54:08;6.17;;;4.87;;
19043;SDS011;9654;52.302;8.120;2023-04-06T00:56:35;7.83;;;4.70;;
19043;SDS011;9654;52.302;8.120;2023-04-06T00:59:02;5.47;;;4.63;;
19043;SDS011;9654;52.302;8.120;2023-04-06T01:01:29;8.60;;;5.03;;
19043;SDS011;9654;52.302;8.120;2023-04-06T01:03:57;6.73;;;4.70;;
19043;SDS011;9654;52.302;8.120;2023-04-06T01:06:24;7.53;;;5.30;;
19043;SDS011;9654;52.302;8.120;2023-04-06T01:08:52;6.63;;;4.73;;
19043;SDS011;9654;52.302;8.120;2023-04-06T01:11:19;6.60;;;4.90;;
19043;SDS011;9654;52.302;8.120;2023-04-06T01:13:46;9.70;;;5.33;;
19043;SDS011;9654;52.302;8.120;2023-04-06T01:16:13;6.67;;;5.33;;
19043;SDS011;9654;52.302;8.120;2023-04-06T01:18:40;6.50;;;5.50;;
19043;SDS011;9654;52.302;8.120;2023-04-06T01:21:07;6.63;;;5.40;;
19043;SDS011;9654;52.302;8.120;2023-04-06T01:23:41;9.13;;;5.73;;
19043;SDS011;9654;52.302;8.120;2023-04-06T01:26:09;9.63;;;4.90;;
19043;SDS011;9654;52.302;8.120;2023-04-06T01:28:35;8.50;;;5.70;;
19043;SDS011;9654;52.302;8.120;2023-04-06T01:31:03;6.37;;;5.10;;
19043;SDS011;9654;52.302;8.120;2023-04-06T01:33:30;7.10;;;5.10;;
19043;SDS011;9654;52.302;8.120;2023-04-06T01:35:57;7.17;;;4.90;;
19043;SDS011;9654;52.302;8.120;2023-04-06T01:38:24;8.73;;;5.57;;
19043;SDS011;9654;52.302;8.120;2023-04-06T01:40:52;7.77;;;5.27;;
19043;SDS011;9654;52.302;8.120;2023-04-06T01:43:19;6.33;;;5.03;;
19043;SDS011;9654;52.302;8.120;2023-04-06T01:45:46;8.10;;;5.77;;
19043;SDS011;9654;52.302;8.120;2023-04-06T01:48:13;7.03;;;5.30;;
19043;SDS011;9654;52.302;8.120;2023-04-06T01:50:40;9.23;;;5.00;;
19043;SDS011;9654;52.302;8.120;2023-04-06T01:53:06;10.40;;;5.67;;
19043;SDS011;9654;52.302;8.120;2023-04-06T01:55:33;7.87;;;5.47;;
19043;SDS011;9654;52.302;8.120;2023-04-06T01:58:01;6.67;;;5.30;;
19043;SDS011;9654;52.302;8.120;2023-04-06T02:00:28;7.13;;;5.17;;
19043;SDS011;9654;52.302;8.120;2023-04-06T02:02:55;8.13;;;5.00;;
19043;SDS011;9654;52.302;8.120;2023-04-06T02:05:22;8.07;;;5.50;;
19043;SDS011;9654;52.302;8.120;2023-04-06T02:07:49;8.33;;;5.57;;
19043;SDS011;9654;52.302;8.120;2023-04-06T02:10:16;10.93;;;5.53;;
19043;SDS011;9654;52.302;8.120;2023-04-06T02:12:43;10.60;;;6.00;;
19043;SDS011;9654;52.302;8.120;2023-04-06T02:15:11;7.60;;;5.70;;
19043;SDS011;9654;52.302;8.120;2023-04-06T02:17:39;10.13;;;5.60;;
19043;SDS011;9654;52.302;8.120;2023-04-06T02:20:06;6.63;;;5.00;;
19043;SDS011;9654;52.302;8.120;2023-04-06T02:22:34;9.53;;;6.03;;
19043;SDS011;9654;52.302;8.120;2023-04-06T02:25:01;8.77;;;5.30;;
19043;SDS011;9654;52.302;8.120;2023-04-06T02:27:28;9.93;;;5.37;;
19043;SDS011;9654;52.302;8.120;2023-04-06T02:29:55;10.43;;;5.80;;
19043;SDS011;9654;52.302;8.120;2023-04-06T02:32:23;9.37;;;5.73;;
19043;SDS011;9654;52.302;8.120;2023-04-06T02:34:50;9.07;;;5.93;;
19043;SDS011;9654;52.302;8.120;2023-04-06T02:37:17;8.60;;;5.90;;
19043;SDS011;9654;52.302;8.120;2023-04-06T02:39:44;10.67;;;5.90;;
19043;SDS011;9654;52.302;8.120;2023-04-06T02:42:11;8.67;;;5.80;;
19043;SDS011;9654;52.302;8.120;2023-04-06T02:44:40;9.37;;;5.17;;
19043;SDS011;9654;52.302;8.120;2023-04-06T02:47:07;9.37;;;5.67;;
19043;SDS011;9654;52.302;8.120;2023-04-06T02:49:35;12.47;;;6.43;;
19043;SDS011;9654;52.302;8.120;2023-04-06T02:52:02;9.53;;;5.90;;
19043;SDS011;9654;52.302;8.120;2023-04-06T02:54:29;9.70;;;5.67;;
19043;SDS011;9654;52.302;8.120;2023-04-06T02:56:56;7.83;;;5.50;;
19043;SDS011;9654;52.302;8.120;2023-04-06T02:59:22;7.30;;;5.50;;
19043;SDS011;9654;52.302;8.120;2023-04-06T03:01:49;8.17;;;5.67;;
19043;SDS011;9654;52.302;8.120;2023-04-06T03:04:16;9.37;;;6.30;;
19043;SDS011;9654;52.302;8.120;2023-04-06T03:06:44;8.73;;;5.87;;
19043;SDS011;9654;52.302;8.120;2023-04-06T03:09:11;10.60;;;5.57;;
19043;SDS011;9654;52.302;8.120;2023-04-06T03:11:39;8.67;;;5.33;;
19043;SDS011;9654;52.302;8.120;2023-04-06T03:14:05;8.90;;;6.37;;
19043;SDS011;9654;52.302;8.120;2023-04-06T03:16:32;10.20;;;6.37;;
19043;SDS011;9654;52.302;8.120;2023-04-06T03:18:59;8.93;;;6.20;;
19043;SDS011;9654;52.302;8.120;2023-04-06T03:21:26;12.70;;;6.40;;
19043;SDS011;9654;52.302;8.120;2023-04-06T03:23:54;9.87;;;6.00;;
19043;SDS011;9654;52.302;8.120;2023-04-06T03:26:21;12.20;;;6.63;;
19043;SDS011;9654;52.302;8.120;2023-04-06T03:28:48;10.00;;;7.00;;
19043;SDS011;9654;52.302;8.120;2023-04-06T03:31:15;10.20;;;6.63;;
19043;SDS011;9654;52.302;8.120;2023-04-06T03:33:42;9.53;;;6.43;;
19043;SDS011;9654;52.302;8.120;2023-04-06T03:36:08;10.37;;;6.70;;
19043;SDS011;9654;52.302;8.120;2023-04-06T03:38:35;13.10;;;7.07;;
19043;SDS011;9654;52.302;8.120;2023-04-06T03:41:04;11.03;;;7.10;;
19043;SDS011;9654;52.302;8.120;2023-04-06T03:43:30;10.33;;;6.90;;
19043;SDS011;9654;52.302;8.120;2023-04-06T03:45:57;9.87;;;6.67;;
19043;SDS011;9654;52.302;8.120;2023-04-06T03:48:24;10.53;;;6.00;;
19043;SDS011;9654;52.302;8.120;2023-04-06T03:50:51;12.40;;;6.67;;
19043;SDS011;9654;52.302;8.120;2023-04-06T03:53:18;9.47;;;6.30;;
19043;SDS011;9654;52.302;8.120;2023-04-06T03:55:45;12.90;;;7.37;;
19043;SDS011;9654;52.302;8.120;2023-04-06T03:58:13;11.40;;;7.10;;
19043;SDS011;9654;52.302;8.120;2023-04-06T04:00:40;10.37;;;6.60;;
19043;SDS011;9654;52.302;8.120;2023-04-06T04:03:06;10.93;;;6.87;;
19043;SDS011;9654;52.302;8.120;2023-04-06T04:05:33;11.57;;;6.97;;
19043;SDS011;9654;52.302;8.120;2023-04-06T04:08:00;12.60;;;7.30;;
19043;SDS011;9654;52.302;8.120;2023-04-06T04:10:27;12.77;;;7.47;;
19043;SDS011;9654;52.302;8.120;2023-04-06T04:12:54;9.70;;;6.33;;
19043;SDS011;9654;52.302;8.120;2023-04-06T04:15:22;12.07;;;6.83;;
19043;SDS011;9654;52.302;8.120;2023-04-06T04:17:49;13.07;;;7.10;;
19043;SDS011;9654;52.302;8.120;2023-04-06T04:20:16;14.10;;;7.37;;
19043;SDS011;9654;52.302;8.120;2023-04-06T04:22:42;14.80;;;7.57;;
19043;SDS011;9654;52.302;8.120;2023-04-06T04:25:09;11.40;;;6.40;;
19043;SDS011;9654;52.302;8.120;2023-04-06T04:27:36;10.00;;;6.60;;
19043;SDS011;9654;52.302;8.120;2023-04-06T04:30:04;11.30;;;7.20;;
19043;SDS011;9654;52.302;8.120;2023-04-06T04:32:33;13.37;;;7.37;;
19043;SDS011;9654;52.302;8.120;2023-04-06T04:35:00;10.40;;;7.53;;
19043;SDS011;9654;52.302;8.120;2023-04-06T04:37:27;10.10;;;7.30;;
19043;SDS011;9654;52.302;8.120;2023-04-06T04:39:54;13.07;;;7.53;;
19043;SDS011;9654;52.302;8.120;2023-04-06T04:42:21;11.03;;;7.77;;
19043;SDS011;9654;52.302;8.120;2023-04-06T04:44:48;12.93;;;6.67;;
19043;SDS011;9654;52.302;8.120;2023-04-06T04:47:15;11.43;;;7.43;;
19043;SDS011;9654;52.302;8.120;2023-04-06T04:49:43;13.00;;;7.07;;
19043;SDS011;9654;52.302;8.120;2023-04-06T04:52:09;11.50;;;7.50;;
19043;SDS011;9654;52.302;8.120;2023-04-06T04:54:36;10.77;;;7.00;;
19043;SDS011;9654;52.302;8.120;2023-04-06T04:57:05;9.83;;;6.73;;
19043;SDS011;9654;52.302;8.120;2023-04-06T04:59:32;9.83;;;7.17;;
19043;SDS011;9654;52.302;8.120;2023-04-06T05:01:59;16.27;;;7.27;;
19043;SDS011;9654;52.302;8.120;2023-04-06T05:04:26;14.73;;;7.63;;
19043;SDS011;9654;52.302;8.120;2023-04-06T05:07:02;14.77;;;9.03;;
19043;SDS011;9654;52.302;8.120;2023-04-06T05:09:30;12.60;;;7.53;;
19043;SDS011;9654;52.302;8.120;2023-04-06T05:11:57;17.40;;;9.07;;
19043;SDS011;9654;52.302;8.120;2023-04-06T05:14:24;11.63;;;8.17;;
19043;SDS011;9654;52.302;8.120;2023-04-06T05:16:50;12.20;;;7.33;;
19043;SDS011;9654;52.302;8.120;2023-04-06T05:19:17;12.90;;;7.47;;
19043;SDS011;9654;52.302;8.120;2023-04-06T05:21:44;12.87;;;7.40;;
19043;SDS011;9654;52.302;8.120;2023-04-06T05:24:13;11.80;;;7.50;;
19043;SDS011;9654;52.302;8.120;2023-04-06T05:26:40;13.03;;;8.30;;
19043;SDS011;9654;52.302;8.120;2023-04-06T05:29:07;12.40;;;8.27;;
19043;SDS011;9654;52.302;8.120;2023-04-06T05:31:34;14.07;;;9.27;;
19043;SDS011;9654;52.302;8.120;2023-04-06T05:34:00;14.90;;;8.53;;
19043;SDS011;9654;52.302;8.120;2023-04-06T05:36:27;11.37;;;7.60;;
19043;SDS011;9654;52.302;8.120;2023-04-06T05:38:55;14.60;;;8.57;;
19043;SDS011;9654;52.302;8.120;2023-04-06T05:41:23;13.20;;;8.47;;
19043;SDS011;9654;52.302;8.120;2023-04-06T05:43:51;12.03;;;7.93;;
19043;SDS011;9654;52.302;8.120;2023-04-06T05:46:18;12.00;;;7.93;;
19043;SDS011;9654;52.302;8.120;2023-04-06T05:48:44;15.87;;;7.73;;
19043;SDS011;9654;52.302;8.120;2023-04-06T05:51:11;9.97;;;7.43;;
19043;SDS011;9654;52.302;8.120;2023-04-06T05:53:38;10.40;;;7.73;;
19043;SDS011;9654;52.302;8.120;2023-04-06T05:56:05;11.57;;;7.90;;
19043;SDS011;9654;52.302;8.120;2023-04-06T05:58:34;12.53;;;7.67;;
19043;SDS011;9654;52.302;8.120;2023-04-06T06:01:01;12.80;;;7.57;;
19043;SDS011;9654;52.302;8.120;2023-04-06T06:03:29;14.13;;;7.80;;
19043;SDS011;9654;52.302;8.120;2023-04-06T06:05:59;11.10;;;7.10;;
19043;SDS011;9654;52.302;8.120;2023-04-06T06:08:26;12.03;;;8.33;;
19043;SDS011;9654;52.302;8.120;2023-04-06T06:10:53;11.87;;;7.60;;
19043;SDS011;9654;52.302;8.120;2023-04-06T06:13:20;14.23;;;7.37;;
19043;SDS011;9654;52.302;8.120;2023-04-06T06:15:49;12.90;;;7.27;;
19043;SDS011;9654;52.302;8.120;2023-04-06T06:18:16;12.30;;;7.20;;
19043;SDS011;9654;52.302;8.120;2023-04-06T06:20:43;11.87;;;7.60;;
19043;SDS011;9654;52.302;8.120;2023-04-06T06:23:10;13.90;;;7.80;;
19043;SDS011;9654;52.302;8.120;2023-04-06T06:25:37;12.17;;;7.23;;
19043;SDS011;9654;52.302;8.120;2023-04-06T06:28:03;10.80;;;6.47;;
19043;SDS011;9654;52.302;8.120;2023-04-06T06:30:30;12.40;;;7.27;;
19043;SDS011;9654;52.302;8.120;2023-04-06T06:32:59;13.87;;;7.60;;
19043;SDS011;9654;52.302;8.120;2023-04-06T06:35:25;13.00;;;7.10;;
19043;SDS011;9654;52.302;8.120;2023-04-06T06:37:52;15.37;;;7.80;;
19043;SDS011;9654;52.302;8.120;2023-04-06T06:40:19;13.23;;;8.03;;
19043;SDS011;9654;52.302;8.120;2023-04-06T06:42:48;10.07;;;7.20;;
19043;SDS011;9654;52.302;8.120;2023-04-06T06:45:16;12.30;;;7.03;;
19043;SDS011;9654;52.302;8.120;2023-04-06T06:47:43;8.37;;;6.50;;
19043;SDS011;9654;52.302;8.120;2023-04-06T06:50:11;11.77;;;7.00;;
19043;SDS011;9654;52.302;8.120;2023-04-06T06:52:39;15.70;;;7.60;;
19043;SDS011;9654;52.302;8.120;2023-04-06T06:55:06;14.10;;;7.33;;
19043;SDS011;9654;52.302;8.120;2023-04-06T06:57:34;12.07;;;6.97;;
19043;SDS011;9654;52.302;8.120;2023-04-06T07:00:01;10.07;;;7.37;;
19043;SDS011;9654;52.302;8.120;2023-04-06T07:02:30;9.13;;;6.80;;
19043;SDS011;9654;52.302;8.120;2023-04-06T07:04:57;12.03;;;7.67;;
19043;SDS011;9654;52.302;8.120;2023-04-06T07:07:25;10.17;;;7.00;;
19043;SDS011;9654;52.302;8.120;2023-04-06T07:09:52;13.03;;;7.03;;
19043;SDS011;9654;52.302;8.120;2023-04-06T07:12:19;13.60;;;7.07;;
19043;SDS011;9654;52.302;8.120;2023-04-06T07:14:46;13.77;;;7.63;;
19043;SDS011;9654;52.302;8.120;2023-04-06T07:17:13;14.40;;;7.43;;
19043;SDS011;9654;52.302;8.120;2023-04-06T07:19:40;13.43;;;7.70;;
19043;SDS011;9654;52.302;8.120;2023-04-06T07:22:06;13.43;;;7.90;;
19043;SDS011;9654;52.302;8.120;2023-04-06T07:24:34;15.87;;;7.93;;
19043;SDS011;9654;52.302;8.120;2023-04-06T07:27:01;11.03;;;7.23;;
19043;SDS011;9654;52.302;8.120;2023-04-06T07:29:58;11.23;;;6.77;;
19043;SDS011;9654;52.302;8.120;2023-04-06T07:32:25;17.03;;;7.83;;
19043;SDS011;9654;52.302;8.120;2023-04-06T07:34:52;15.53;;;7.20;;
19043;SDS011;9654;52.302;8.120;2023-04-06T07:37:19;11.47;;;7.63;;
19043;SDS011;9654;52.302;8.120;2023-04-06T07:39:48;12.63;;;7.77;;
19043;SDS011;9654;52.302;8.120;2023-04-06T07:42:14;10.23;;;7.07;;
19043;SDS011;9654;52.302;8.120;2023-04-06T07:44:41;16.10;;;9.57;;
19043;SDS011;9654;52.302;8.120;2023-04-06T07:47:08;11.60;;;7.37;;
19043;SDS011;9654;52.302;8.120;2023-04-06T07:49:35;17.00;;;8.10;;
19043;SDS011;9654;52.302;8.120;2023-04-06T07:52:02;11.00;;;6.67;;
19043;SDS011;9654;52.302;8.120;2023-04-06T07:54:29;12.87;;;7.20;;
19043;SDS011;9654;52.302;8.120;2023-04-06T07:56:57;12.67;;;7.63;;
19043;SDS011;9654;52.302;8.120;2023-04-06T07:59:24;13.47;;;7.60;;
19043;SDS011;9654;52.302;8.120;2023-04-06T08:01:51;12.37;;;7.43;;
19043;SDS011;9654;52.302;8.120;2023-04-06T08:04:18;12.90;;;7.27;;
19043;SDS011;9654;52.302;8.120;2023-04-06T08:06:44;12.47;;;7.17;;
19043;SDS011;9654;52.302;8.120;2023-04-06T08:09:11;12.60;;;7.40;;
19043;SDS011;9654;52.302;8.120;2023-04-06T08:11:38;11.77;;;7.17;;
19043;SDS011;9654;52.302;8.120;2023-04-06T08:14:06;12.97;;;8.13;;
19043;SDS011;9654;52.302;8.120;2023-04-06T08:16:33;13.93;;;7.47;;
19043;SDS011;9654;52.302;8.120;2023-04-06T08:19:00;11.00;;;7.17;;
19043;SDS011;9654;52.302;8.120;2023-04-06T08:21:27;11.10;;;6.90;;
19043;SDS011;9654;52.302;8.120;2023-04-06T08:23:53;10.57;;;7.20;;
19043;SDS011;9654;52.302;8.120;2023-04-06T08:26:20;11.87;;;8.27;;
19043;SDS011;9654;52.302;8.120;2023-04-06T08:28:47;12.53;;;7.03;;
19043;SDS011;9654;52.302;8.120;2023-04-06T08:31:15;11.17;;;6.67;;
19043;SDS011;9654;52.302;8.120;2023-04-06T08:33:42;11.83;;;7.07;;
19043;SDS011;9654;52.302;8.120;2023-04-06T08:36:10;10.90;;;6.93;;
19043;SDS011;9654;52.302;8.120;2023-04-06T08:38:38;14.80;;;7.50;;
19043;SDS011;9654;52.302;8.120;2023-04-06T08:41:06;13.93;;;7.07;;
19043;SDS011;9654;52.302;8.120;2023-04-06T08:43:35;9.07;;;6.63;;
19043;SDS011;9654;52.302;8.120;2023-04-06T08:46:07;13.27;;;7.30;;
19043;SDS011;9654;52.302;8.120;2023-04-06T08:48:36;9.90;;;6.50;;
19043;SDS011;9654;52.302;8.120;2023-04-06T08:51:04;8.50;;;6.27;;
19043;SDS011;9654;52.302;8.120;2023-04-06T08:53:31;12.87;;;7.93;;
19043;SDS011;9654;52.302;8.120;2023-04-06T08:55:58;10.63;;;6.90;;
19043;SDS011;9654;52.302;8.120;2023-04-06T08:58:28;10.80;;;6.60;;
19043;SDS011;9654;52.302;8.120;2023-04-06T09:01:01;10.70;;;6.63;;
19043;SDS011;9654;52.302;8.120;2023-04-06T09:03:32;9.97;;;6.13;;
19043;SDS011;9654;52.302;8.120;2023-04-06T09:06:04;12.63;;;7.87;;
19043;SDS011;9654;52.302;8.120;2023-04-06T09:08:32;12.90;;;7.70;;
19043;SDS011;9654;52.302;8.120;2023-04-06T09:11:00;12.67;;;6.60;;
19043;SDS011;9654;52.302;8.120;2023-04-06T09:13:27;11.83;;;6.03;;
19043;SDS011;9654;52.302;8.120;2023-04-06T09:16:00;9.17;;;6.97;;
19043;SDS011;9654;52.302;8.120;2023-04-06T09:18:28;14.13;;;7.33;;
19043;SDS011;9654;52.302;8.120;2023-04-06T09:21:00;10.87;;;6.90;;
19043;SDS011;9654;52.302;8.120;2023-04-06T09:23:28;10.60;;;7.23;;
19043;SDS011;9654;52.302;8.120;2023-04-06T09:26:08;9.53;;;6.77;;
19043;SDS011;9654;52.302;8.120;2023-04-06T09:28:43;12.50;;;7.90;;
19043;SDS011;9654;52.302;8.120;2023-04-06T09:31:11;11.73;;;7.57;;
19043;SDS011;9654;52.302;8.120;2023-04-06T09:33:40;12.00;;;7.10;;
19043;SDS011;9654;52.302;8.120;2023-04-06T09:36:09;12.93;;;7.37;;
19043;SDS011;9654;52.302;8.120;2023-04-06T09:38:37;12.70;;;7.50;;
19043;SDS011;9654;52.302;8.120;2023-04-06T09:41:04;11.93;;;7.50;;
19043;SDS011;9654;52.302;8.120;2023-04-06T09:43:31;10.67;;;6.37;;
19043;SDS011;9654;52.302;8.120;2023-04-06T09:45:58;10.60;;;7.20;;
19043;SDS011;9654;52.302;8.120;2023-04-06T09:48:27;13.60;;;7.67;;
19043;SDS011;9654;52.302;8.120;2023-04-06T09:51:01;10.00;;;7.33;;
19043;SDS011;9654;52.302;8.120;2023-04-06T09:53:32;13.33;;;7.63;;
19043;SDS011;9654;52.302;8.120;2023-04-06T09:56:05;13.63;;;7.83;;
19043;SDS011;9654;52.302;8.120;2023-04-06T09:58:37;13.37;;;7.33;;
19043;SDS011;9654;52.302;8.120;2023-04-06T10:01:09;11.47;;;8.17;;
19043;SDS011;9654;52.302;8.120;2023-04-06T10:03:40;11.53;;;7.47;;
19043;SDS011;9654;52.302;8.120;2023-04-06T10:06:12;12.27;;;7.80;;
19043;SDS011;9654;52.302;8.120;2023-04-06T10:08:42;12.13;;;7.97;;
19043;SDS011;9654;52.302;8.120;2023-04-06T10:11:13;15.13;;;7.93;;
19043;SDS011;9654;52.302;8.120;2023-04-06T10:13:41;15.03;;;8.33;;
19043;SDS011;9654;52.302;8.120;2023-04-06T10:16:09;16.03;;;7.97;;
19043;SDS011;9654;52.302;8.120;2023-04-06T10:18:36;11.37;;;7.27;;
19043;SDS011;9654;52.302;8.120;2023-04-06T10:21:08;11.17;;;7.60;;
19043;SDS011;9654;52.302;8.120;2023-04-06T10:23:40;14.37;;;8.10;;
19043;SDS011;9654;52.302;8.120;2023-04-06T10:26:12;14.00;;;8.77;;
19043;SDS011;9654;52.302;8.120;2023-04-06T10:28:41;12.93;;;7.77;;
19043;SDS011;9654;52.302;8.120;2023-04-06T10:31:09;12.17;;;8.00;;
19043;SDS011;9654;52.302;8.120;2023-04-06T10:33:36;13.33;;;8.43;;
19043;SDS011;9654;52.302;8.120;2023-04-06T10:36:10;14.93;;;8.37;;
19043;SDS011;9654;52.302;8.120;2023-04-06T10:38:38;15.37;;;9.33;;
19043;SDS011;9654;52.302;8.120;2023-04-06T10:41:07;15.87;;;9.00;;
19043;SDS011;9654;52.302;8.120;2023-04-06T10:43:35;13.50;;;8.83;;
19043;SDS011;9654;52.302;8.120;2023-04-06T10:46:03;13.77;;;9.30;;
19043;SDS011;9654;52.302;8.120;2023-04-06T10:48:38;15.17;;;9.03;;
19043;SDS011;9654;52.302;8.120;2023-04-06T10:51:09;15.43;;;8.70;;
19043;SDS011;9654;52.302;8.120;2023-04-06T10:53:37;14.10;;;8.50;;
19043;SDS011;9654;52.302;8.120;2023-04-06T10:56:04;18.20;;;9.63;;
19043;SDS011;9654;52.302;8.120;2023-04-06T10:58:36;14.93;;;9.60;;
19043;SDS011;9654;52.302;8.120;2023-04-06T11:01:03;13.53;;;8.83;;
19043;SDS011;9654;52.302;8.120;2023-04-06T11:03:29;15.77;;;9.93;;
19043;SDS011;9654;52.302;8.120;2023-04-06T11:05:57;14.60;;;9.57;;
19043;SDS011;9654;52.302;8.120;2023-04-06T11:08:28;14.73;;;9.23;;
19043;SDS011;9654;52.302;8.120;2023-04-06T11:11:07;19.50;;;9.27;;
19043;SDS011;9654;52.302;8.120;2023-04-06T11:13:40;15.17;;;9.33;;
19043;SDS011;9654;52.302;8.120;2023-04-06T11:16:11;15.37;;;10.13;;
19043;SDS011;9654;52.302;8.120;2023-04-06T11:18:46;17.57;;;10.00;;
19043;SDS011;9654;52.302;8.120;2023-04-06T11:21:14;14.37;;;9.10;;
19043;SDS011;9654;52.302;8.120;2023-04-06T11:23:40;17.60;;;10.17;;
19043;SDS011;9654;52.302;8.120;2023-04-06T11:26:11;15.83;;;9.23;;
19043;SDS011;9654;52.302;8.120;2023-04-06T11:28:39;16.73;;;9.27;;
19043;SDS011;9654;52.302;8.120;2023-04-06T11:31:07;17.77;;;10.07;;
19043;SDS011;9654;52.302;8.120;2023-04-06T11:33:36;15.73;;;9.67;;
19043;SDS011;9654;52.302;8.120;2023-04-06T11:36:05;14.73;;;8.87;;
19043;SDS011;9654;52.302;8.120;2023-04-06T11:38:32;16.53;;;10.00;;
19043;SDS011;9654;52.302;8.120;2023-04-06T11:41:00;15.50;;;9.10;;
19043;SDS011;9654;52.302;8.120;2023-04-06T11:43:30;15.73;;;9.40;;
19043;SDS011;9654;52.302;8.120;2023-04-06T11:46:00;12.77;;;8.50;;
19043;SDS011;9654;52.302;8.120;2023-04-06T11:48:28;12.97;;;8.13;;
19043;SDS011;9654;52.302;8.120;2023-04-06T11:50:55;14.17;;;8.40;;
19043;SDS011;9654;52.302;8.120;2023-04-06T11:53:23;12.87;;;8.07;;
19043;SDS011;9654;52.302;8.120;2023-04-06T11:55:50;11.50;;;7.97;;
19043;SDS011;9654;52.302;8.120;2023-04-06T11:58:17;14.07;;;8.80;;
19043;SDS011;9654;52.302;8.120;2023-04-06T12:00:46;14.97;;;8.33;;
19043;SDS011;9654;52.302;8.120;2023-04-06T12:03:13;14.37;;;8.90;;
19043;SDS011;9654;52.302;8.120;2023-04-06T12:05:40;12.20;;;8.53;;
19043;SDS011;9654;52.302;8.120;2023-04-06T12:08:07;17.80;;;8.37;;
19043;SDS011;9654;52.302;8.120;2023-04-06T12:10:33;13.57;;;8.40;;
19043;SDS011;9654;52.302;8.120;2023-04-06T12:13:00;16.57;;;8.00;;
19043;SDS011;9654;52.302;8.120;2023-04-06T12:15:27;13.77;;;8.57;;
19043;SDS011;9654;52.302;8.120;2023-04-06T12:17:55;12.80;;;8.23;;
19043;SDS011;9654;52.302;8.120;2023-04-06T12:20:22;12.10;;;8.23;;
19043;SDS011;9654;52.302;8.120;2023-04-06T12:22:49;13.97;;;9.57;;
19043;SDS011;9654;52.302;8.120;2023-04-06T12:25:16;14.43;;;9.20;;
19043;SDS011;9654;52.302;8.120;2023-04-06T12:27:43;14.77;;;9.20;;
19043;SDS011;9654;52.302;8.120;2023-04-06T12:30:10;13.43;;;8.93;;
19043;SDS011;9654;52.302;8.120;2023-04-06T12:32:37;14.27;;;8.57;;
19043;SDS011;9654;52.302;8.120;2023-04-06T12:35:06;18.80;;;9.53;;
19043;SDS011;9654;52.302;8.120;2023-04-06T12:37:36;13.70;;;9.07;;
19043;SDS011;9654;52.302;8.120;2023-04-06T12:40:04;16.27;;;9.37;;
19043;SDS011;9654;52.302;8.120;2023-04-06T12:42:31;13.63;;;8.27;;
19043;SDS011;9654;52.302;8.120;2023-04-06T12:44:58;16.83;;;9.10;;
19043;SDS011;9654;52.302;8.120;2023-04-06T12:47:25;14.77;;;9.43;;
19043;SDS011;9654;52.302;8.120;2023-04-06T12:49:52;14.27;;;8.80;;
19043;SDS011;9654;52.302;8.120;2023-04-06T12:52:21;12.70;;;8.50;;
19043;SDS011;9654;52.302;8.120;2023-04-06T12:54:48;16.47;;;8.20;;
19043;SDS011;9654;52.302;8.120;2023-04-06T12:57:16;14.20;;;8.53;;
19043;SDS011;9654;52.302;8.120;2023-04-06T12:59:43;14.87;;;8.67;;
19043;SDS011;9654;52.302;8.120;2023-04-06T13:02:11;15.07;;;8.17;;
19043;SDS011;9654;52.302;8.120;2023-04-06T13:04:38;16.17;;;9.10;;
19043;SDS011;9654;52.302;8.120;2023-04-06T13:07:05;13.73;;;8.40;;
19043;SDS011;9654;52.302;8.120;2023-04-06T13:09:33;14.80;;;9.53;;
19043;SDS011;9654;52.302;8.120;2023-04-06T13:12:00;14.17;;;9.50;;
19043;SDS011;9654;52.302;8.120;2023-04-06T13:14:27;15.87;;;9.57;;
19043;SDS011;9654;52.302;8.120;2023-04-06T13:16:53;14.13;;;9.53;;
19043;SDS011;9654;52.302;8.120;2023-04-06T13:19:20;14.23;;;8.87;;
19043;SDS011;9654;52.302;8.120;2023-04-06T13:21:47;16.63;;;8.50;;
19043;SDS011;9654;52.302;8.120;2023-04-06T13:24:14;13.80;;;8.97;;
19043;SDS011;9654;52.302;8.120;2023-04-06T13:26:43;14.70;;;9.93;;
19043;SDS011;9654;52.302;8.120;2023-04-06T13:29:09;16.20;;;9.60;;
19043;SDS011;9654;52.302;8.120;2023-04-06T13:31:36;16.67;;;9.13;;
19043;SDS011;9654;52.302;8.120;2023-04-06T13:34:03;14.57;;;9.07;;
19043;SDS011;9654;52.302;8.120;2023-04-06T13:36:30;15.77;;;8.97;;
19043;SDS011;9654;52.302;8.120;2023-04-06T13:38:57;19.53;;;10.33;;
19043;SDS011;9654;52.302;8.120;2023-04-06T13:41:25;15.93;;;9.40;;
19043;SDS011;9654;52.302;8.120;2023-04-06T13:43:53;18.60;;;9.47;;
19043;SDS011;9654;52.302;8.120;2023-04-06T13:46:20;15.33;;;9.50;;
19043;SDS011;9654;52.302;8.120;2023-04-06T13:48:48;14.67;;;8.73;;
19043;SDS011;9654;52.302;8.120;2023-04-06T13:51:16;15.00;;;9.43;;
19043;SDS011;9654;52.302;8.120;2023-04-06T13:53:42;14.30;;;9.37;;
19043;SDS011;9654;52.302;8.120;2023-04-06T13:56:09;16.40;;;9.23;;
19043;SDS011;9654;52.302;8.120;2023-04-06T13:58:36;14.67;;;9.63;;
19043;SDS011;9654;52.302;8.120;2023-04-06T14:01:05;15.23;;;9.87;;
19043;SDS011;9654;52.302;8.120;2023-04-06T14:03:34;19.13;;;10.30;;
19043;SDS011;9654;52.302;8.120;2023-04-06T14:06:01;17.87;;;10.40;;
19043;SDS011;9654;52.302;8.120;2023-04-06T14:08:35;19.33;;;10.40;;
19043;SDS011;9654;52.302;8.120;2023-04-06T14:11:02;15.97;;;9.63;;
19043;SDS011;9654;52.302;8.120;2023-04-06T14:13:29;16.90;;;10.17;;
19043;SDS011;9654;52.302;8.120;2023-04-06T14:15:56;16.00;;;10.17;;
19043;SDS011;9654;52.302;8.120;2023-04-06T14:18:24;15.77;;;10.07;;
19043;SDS011;9654;52.302;8.120;2023-04-06T14:20:53;17.33;;;10.53;;
19043;SDS011;9654;52.302;8.120;2023-04-06T14:23:21;20.37;;;10.93;;
19043;SDS011;9654;52.302;8.120;2023-04-06T14:25:47;19.20;;;11.03;;
19043;SDS011;9654;52.302;8.120;2023-04-06T14:28:14;15.97;;;10.50;;
19043;SDS011;9654;52.302;8.120;2023-04-06T14:30:41;17.97;;;10.73;;
19043;SDS011;9654;52.302;8.120;2023-04-06T14:33:08;19.03;;;11.47;;
19043;SDS011;9654;52.302;8.120;2023-04-06T14:35:39;22.20;;;11.67;;
19043;SDS011;9654;52.302;8.120;2023-04-06T14:38:05;18.37;;;11.80;;
19043;SDS011;9654;52.302;8.120;2023-04-06T14:40:34;18.90;;;11.07;;
19043;SDS011;9654;52.302;8.120;2023-04-06T14:43:01;18.17;;;11.53;;
19043;SDS011;9654;52.302;8.120;2023-04-06T14:45:29;19.13;;;11.57;;
19043;SDS011;9654;52.302;8.120;2023-04-06T14:47:55;16.97;;;10.47;;
19043;SDS011;9654;52.302;8.120;2023-04-06T14:50:22;15.57;;;9.90;;
19043;SDS011;9654;52.302;8.120;2023-04-06T14:52:50;13.60;;;8.50;;